Skip Navigation Links Skip Navigation Links

Current Weather

Oslo / Gardermoen, Norway

For information only: do not use for flight planning or navigation.
Latest weather
Observation time Friday, February 21, 2020 9:20 AM CET
Local time Friday, February 21, 2020 9:56 AM CET
Flight conditions Visual Meteorological Conditions
Winds
Wind direction South (170°)
Wind speed 14 mph
Visibility 6.2 mi.
Sky condition
Ceiling unlimited
Sky clear
Temperature 34°F
Dewpoint 27°F
Altimeter 29.38 in.Hg
Derived measurements
Relative humidity 75%
Wind chill 24°F
Density altitude -983 ft.
Remarks
Ceiling and visibility OK.
No significant changes expected in the next two hours.
METAR ENGM 210820Z 17012KT CAVOK 01/M03 Q0995 NOSIG

Settings

Location code

InnerDrive.Weather 4.0.6770.0 Release CLR 4.0.30319.42000
Copyright ©2018 Inner Drive Technology. All rights reserved. Portions Copyright ©1986-2018 David Braverman.

Find weather

Site navigation


Skip Navigation Links

Place info

Page info

PayPal - The safer, easier way to pay online!

Return home.

Copyright ©2020 Inner Drive Technology. Purveyors of fine, hand-crafted computer software. Page printed 2020-02-21T08:56:56 UTC.